createdAt,value
2022-08-20T00:02:23.761Z,5.40
2022-08-20T00:04:56.718Z,6.20
2022-08-20T00:07:30.970Z,6.40
2022-08-20T00:10:04.017Z,6.00
2022-08-20T00:12:37.415Z,5.80
2022-08-20T00:15:12.645Z,6.60
2022-08-20T00:17:45.965Z,5.90
2022-08-20T00:20:20.828Z,4.80
2022-08-20T00:22:54.436Z,5.80
2022-08-20T00:25:28.643Z,5.40
2022-08-20T00:28:01.995Z,6.00
2022-08-20T00:30:36.367Z,6.00
2022-08-20T00:33:12.639Z,5.80
2022-08-20T00:35:48.951Z,5.60
2022-08-20T00:38:22.320Z,5.60
2022-08-20T00:40:59.560Z,7.00
2022-08-20T00:43:46.737Z,6.40
2022-08-20T00:46:31.140Z,6.10
2022-08-20T00:49:08.514Z,5.80
2022-08-20T00:51:45.165Z,5.80
2022-08-20T00:54:23.723Z,6.30
2022-08-20T00:57:00.075Z,7.00
2022-08-20T00:59:37.734Z,5.90
2022-08-20T01:02:16.758Z,7.00
2022-08-20T01:04:52.696Z,6.80
2022-08-20T01:07:32.876Z,6.90
2022-08-20T01:12:42.735Z,6.50
2022-08-20T01:15:18.383Z,6.30
2022-08-20T01:17:58.204Z,6.80
2022-08-20T01:20:35.757Z,6.90
2022-08-20T01:23:31.384Z,7.30
2022-08-20T01:26:09.754Z,6.60
2022-08-20T01:28:46.809Z,5.90
2022-08-20T01:31:25.390Z,5.90
2022-08-20T01:34:01.436Z,8.20
2022-08-20T01:36:43.007Z,7.10
2022-08-20T01:39:25.001Z,7.70
2022-08-20T01:42:08.951Z,8.40
2022-08-20T01:44:43.894Z,9.00
2022-08-20T01:47:22.599Z,9.60
2022-08-20T01:50:00.163Z,9.50
2022-08-20T01:52:41.685Z,9.20
2022-08-20T01:55:14.897Z,8.60
2022-08-20T01:57:48.707Z,9.10
2022-08-20T02:00:23.529Z,8.70
2022-08-20T02:02:56.441Z,8.00
2022-08-20T02:05:30.653Z,8.60
2022-08-20T02:08:04.407Z,9.10
2022-08-20T02:10:37.197Z,9.10
2022-08-20T02:13:10.592Z,8.40
2022-08-20T02:15:43.777Z,9.30
2022-08-20T02:18:20.594Z,9.20
2022-08-20T02:20:54.124Z,8.20
2022-08-20T02:23:27.225Z,8.80
2022-08-20T02:26:00.432Z,10.70
2022-08-20T02:28:33.325Z,10.00
2022-08-20T02:31:08.791Z,8.50
2022-08-20T02:33:41.569Z,8.80
2022-08-20T02:36:34.505Z,8.50
2022-08-20T02:39:09.966Z,8.50
2022-08-20T02:41:43.598Z,9.90
2022-08-20T02:44:19.089Z,10.10
2022-08-20T02:46:52.386Z,8.90
2022-08-20T02:49:25.386Z,9.20
2022-08-20T02:51:58.464Z,9.60
2022-08-20T02:54:31.444Z,9.60
2022-08-20T02:57:04.950Z,10.00
2022-08-20T02:59:37.625Z,9.90
2022-08-20T03:02:11.803Z,10.20
2022-08-20T03:04:44.733Z,9.80
2022-08-20T03:07:18.153Z,9.20
2022-08-20T03:09:51.451Z,9.70
2022-08-20T03:12:24.195Z,10.30
2022-08-20T03:14:57.181Z,9.30
2022-08-20T03:17:30.171Z,9.80
2022-08-20T03:20:03.465Z,9.40
2022-08-20T03:22:36.357Z,8.50
2022-08-20T03:25:11.155Z,8.50
2022-08-20T03:27:44.096Z,12.10
2022-08-20T03:30:20.243Z,9.80
2022-08-20T03:32:53.291Z,10.20
2022-08-20T03:35:28.724Z,10.90
2022-08-20T03:38:01.750Z,12.30
2022-08-20T03:40:37.903Z,9.70
2022-08-20T03:43:11.947Z,10.70
2022-08-20T03:45:46.966Z,11.60
2022-08-20T03:48:22.253Z,10.90
2022-08-20T03:50:57.937Z,12.30
2022-08-20T03:53:32.002Z,14.30
2022-08-20T03:56:07.870Z,15.40
2022-08-20T03:58:40.795Z,13.80
2022-08-20T04:01:36.809Z,14.30
2022-08-20T04:04:12.665Z,11.20
2022-08-20T04:06:47.694Z,11.50
2022-08-20T04:09:20.589Z,12.10
2022-08-20T04:12:00.538Z,10.40
2022-08-20T04:14:33.319Z,12.10
2022-08-20T04:17:12.435Z,12.30
2022-08-20T04:19:46.138Z,14.60
2022-08-20T04:22:19.241Z,12.70
2022-08-20T04:24:52.025Z,16.20
2022-08-20T04:27:24.867Z,15.00
2022-08-20T04:29:58.110Z,14.10
2022-08-20T04:32:31.085Z,16.50
2022-08-20T04:35:07.552Z,14.70
2022-08-20T04:37:40.890Z,13.10
2022-08-20T04:40:36.465Z,11.30
2022-08-20T04:43:09.659Z,10.70
2022-08-20T04:45:45.513Z,9.30
2022-08-20T04:48:19.235Z,10.30
2022-08-20T04:50:53.902Z,9.60
2022-08-20T04:53:29.978Z,8.10
2022-08-20T04:56:04.647Z,8.80
2022-08-20T04:58:40.755Z,8.80
2022-08-20T05:01:15.151Z,8.60
2022-08-20T05:03:49.027Z,7.60
2022-08-20T05:06:22.468Z,8.10
2022-08-20T05:08:56.327Z,8.70
2022-08-20T05:11:33.773Z,8.20
2022-08-20T05:14:11.709Z,9.70
2022-08-20T05:16:44.612Z,10.10
2022-08-20T05:19:17.609Z,7.50
2022-08-20T05:21:53.948Z,7.90
2022-08-20T05:24:27.003Z,8.10
2022-08-20T05:27:00.613Z,11.00
2022-08-20T05:29:33.931Z,9.60
2022-08-20T05:32:08.087Z,9.80
2022-08-20T05:34:41.402Z,10.90
2022-08-20T05:37:15.786Z,8.30
2022-08-20T05:39:48.801Z,8.60
2022-08-20T05:42:21.840Z,9.50
2022-08-20T05:44:54.827Z,10.20
2022-08-20T05:47:31.089Z,10.90
2022-08-20T05:50:20.635Z,18.40
2022-08-20T05:52:56.477Z,20.30
2022-08-20T05:55:29.451Z,22.10
2022-08-20T05:58:04.405Z,21.60
2022-08-20T06:00:38.514Z,26.00
2022-08-20T06:03:28.880Z,28.00
2022-08-20T06:08:33.946Z,29.60
2022-08-20T06:11:07.854Z,28.30
2022-08-20T06:13:40.893Z,29.30
2022-08-20T06:16:13.889Z,29.00
2022-08-20T06:18:46.773Z,28.90
2022-08-20T06:21:19.673Z,27.00
2022-08-20T06:23:57.094Z,30.00
2022-08-20T06:26:32.099Z,27.50
2022-08-20T06:29:06.009Z,25.60
2022-08-20T06:31:40.153Z,26.60
2022-08-20T06:34:13.089Z,25.80
2022-08-20T06:36:46.979Z,24.30
2022-08-20T06:39:20.159Z,25.90
2022-08-20T06:41:53.369Z,25.00
2022-08-20T06:44:28.817Z,26.40
2022-08-20T06:47:07.272Z,24.80
2022-08-20T06:49:40.617Z,22.30
2022-08-20T06:52:17.600Z,23.70
2022-08-20T06:54:50.584Z,24.20
2022-08-20T06:57:23.342Z,26.00
2022-08-20T06:59:59.692Z,25.60
2022-08-20T07:02:34.243Z,25.80
2022-08-20T07:05:08.652Z,26.60
2022-08-20T07:07:45.557Z,26.70
2022-08-20T07:10:21.823Z,27.30
2022-08-20T07:12:54.705Z,28.20
2022-08-20T07:15:28.815Z,26.90
2022-08-20T07:18:05.012Z,29.90
2022-08-20T07:20:40.605Z,28.10
2022-08-20T07:23:13.612Z,28.70
2022-08-20T07:25:48.958Z,27.50
2022-08-20T07:28:28.969Z,27.60
2022-08-20T07:31:16.165Z,26.70
2022-08-20T07:33:50.416Z,26.20
2022-08-20T07:36:23.533Z,24.30
2022-08-20T07:38:56.961Z,23.70
2022-08-20T07:41:30.124Z,22.20
2022-08-20T07:44:03.720Z,24.00
2022-08-20T07:46:36.697Z,24.10
2022-08-20T07:49:09.797Z,23.50
2022-08-20T07:51:42.579Z,24.00
2022-08-20T07:54:15.570Z,23.00
2022-08-20T07:56:49.660Z,22.80
2022-08-20T07:59:25.121Z,24.20
2022-08-20T08:01:58.661Z,22.00
2022-08-20T08:04:31.522Z,23.20
2022-08-20T08:07:04.629Z,23.10
2022-08-20T08:09:38.537Z,21.10
2022-08-20T08:12:13.414Z,20.70
2022-08-20T08:14:48.526Z,22.10
2022-08-20T08:17:22.065Z,22.60
2022-08-20T08:19:54.966Z,22.00
2022-08-20T08:22:29.632Z,21.90
2022-08-20T08:25:03.186Z,23.80
2022-08-20T08:27:36.389Z,22.10
2022-08-20T08:30:14.038Z,22.40
2022-08-20T08:33:04.771Z,21.70
2022-08-20T08:35:41.449Z,19.50
2022-08-20T08:38:17.398Z,18.40
2022-08-20T08:40:51.792Z,20.70
2022-08-20T08:43:32.917Z,19.90
2022-08-20T08:46:13.672Z,17.80
2022-08-20T08:48:53.667Z,18.50
2022-08-20T08:54:06.954Z,19.20
2022-08-20T08:56:41.278Z,18.90
2022-08-20T08:59:14.170Z,20.70
2022-08-20T09:01:54.652Z,19.60
2022-08-20T09:04:35.493Z,19.90
2022-08-20T09:07:15.651Z,19.70
2022-08-20T09:09:49.798Z,18.80
2022-08-20T09:12:28.040Z,18.60
2022-08-20T09:15:01.607Z,15.90
2022-08-20T09:17:34.767Z,16.80
2022-08-20T09:20:10.765Z,19.70
2022-08-20T09:22:43.860Z,18.60
2022-08-20T09:25:16.494Z,18.20
2022-08-20T09:27:49.390Z,17.10
2022-08-20T09:30:23.980Z,17.80
2022-08-20T09:32:56.927Z,18.50
2022-08-20T09:35:30.216Z,18.10
2022-08-20T09:38:03.270Z,16.40
2022-08-20T09:40:36.374Z,16.50
2022-08-20T09:43:11.659Z,18.60
2022-08-20T09:45:44.501Z,16.50
2022-08-20T09:48:17.335Z,16.10
2022-08-20T09:50:52.939Z,16.60
2022-08-20T09:53:26.069Z,15.90
2022-08-20T09:56:00.301Z,15.50
2022-08-20T09:58:51.181Z,17.50
2022-08-20T10:01:25.492Z,14.60
2022-08-20T10:03:58.627Z,15.70
2022-08-20T10:06:35.804Z,16.00
2022-08-20T10:09:10.638Z,14.20
2022-08-20T10:11:43.496Z,14.50
2022-08-20T10:14:16.208Z,16.00
2022-08-20T10:16:55.981Z,16.00
2022-08-20T10:19:34.295Z,16.40
2022-08-20T10:22:07.499Z,16.60
2022-08-20T10:24:40.344Z,15.90
2022-08-20T10:27:13.252Z,13.20
2022-08-20T10:29:46.960Z,16.50
2022-08-20T10:32:21.053Z,15.70
2022-08-20T10:34:54.368Z,14.90
2022-08-20T10:37:29.061Z,16.20
2022-08-20T10:40:02.051Z,15.90
2022-08-20T10:42:37.006Z,13.90
2022-08-20T10:45:16.086Z,13.70
2022-08-20T10:47:49.301Z,15.40
2022-08-20T10:50:22.292Z,16.80
2022-08-20T10:52:55.097Z,17.10
2022-08-20T10:55:28.214Z,15.80
2022-08-20T10:58:01.047Z,14.90
2022-08-20T11:00:34.239Z,13.90
2022-08-20T11:03:07.436Z,14.10
2022-08-20T11:05:40.310Z,15.60
2022-08-20T11:08:13.412Z,13.50
2022-08-20T11:10:46.204Z,14.90
2022-08-20T11:13:19.005Z,14.00
2022-08-20T11:15:52.260Z,15.80
2022-08-20T11:18:25.059Z,14.60
2022-08-20T11:20:58.605Z,16.40
2022-08-20T11:23:31.475Z,15.80
2022-08-20T11:26:06.557Z,16.50
2022-08-20T11:28:39.543Z,14.70
2022-08-20T11:31:12.443Z,16.00
2022-08-20T11:33:45.210Z,15.70
2022-08-20T11:36:17.993Z,16.40
2022-08-20T11:38:51.414Z,15.40
2022-08-20T11:41:24.283Z,14.10
2022-08-20T11:44:20.398Z,16.50
2022-08-20T11:46:49.911Z,13.60
2022-08-20T11:49:23.103Z,14.00
2022-08-20T11:51:55.999Z,15.80
2022-08-20T11:54:29.610Z,13.10
2022-08-20T11:57:02.602Z,14.10
2022-08-20T11:59:35.557Z,15.90
2022-08-20T12:02:12.370Z,14.10
2022-08-20T12:04:45.866Z,15.40
2022-08-20T12:07:21.362Z,13.40
2022-08-20T12:09:54.799Z,14.20
2022-08-20T12:12:28.068Z,13.20
2022-08-20T12:15:01.057Z,12.40
2022-08-20T12:17:34.856Z,13.10
2022-08-20T12:20:14.102Z,11.60
2022-08-20T12:25:19.557Z,11.70
2022-08-20T12:27:52.754Z,13.80
2022-08-20T12:30:27.153Z,11.50
2022-08-20T12:33:00.196Z,11.80
2022-08-20T12:35:33.505Z,11.40
2022-08-20T12:38:09.727Z,10.50
2022-08-20T12:40:43.266Z,11.50
2022-08-20T12:43:16.205Z,10.70
2022-08-20T12:45:48.980Z,10.60
2022-08-20T12:48:22.354Z,9.40
2022-08-20T12:50:55.282Z,11.70
2022-08-20T12:53:28.305Z,11.70
2022-08-20T12:56:02.915Z,11.70
2022-08-20T12:58:35.866Z,11.50
2022-08-20T13:01:09.074Z,10.60
2022-08-20T13:03:45.047Z,11.20
2022-08-20T13:06:18.369Z,10.80
2022-08-20T13:08:51.185Z,10.80
2022-08-20T13:11:24.077Z,10.80
2022-08-20T13:13:56.865Z,10.20
2022-08-20T13:16:30.266Z,9.60
2022-08-20T13:19:03.171Z,10.00
2022-08-20T13:21:37.140Z,8.90
2022-08-20T13:24:10.943Z,9.70
2022-08-20T13:26:44.039Z,8.80
2022-08-20T13:29:18.283Z,9.20
2022-08-20T13:31:51.340Z,9.80
2022-08-20T13:34:24.223Z,9.00
2022-08-20T13:36:57.144Z,8.80
2022-08-20T13:39:29.999Z,8.30
2022-08-20T13:42:03.005Z,8.30
2022-08-20T13:44:36.030Z,8.70
2022-08-20T13:47:21.240Z,8.20
2022-08-20T13:50:01.704Z,7.40
2022-08-20T13:52:35.490Z,7.40
2022-08-20T13:55:13.446Z,8.20
2022-08-20T13:57:48.447Z,7.50
2022-08-20T14:00:31.357Z,8.80
2022-08-20T14:03:06.628Z,8.20
2022-08-20T14:05:39.594Z,9.40
2022-08-20T14:08:15.987Z,8.60
2022-08-20T14:10:51.494Z,8.40
2022-08-20T14:13:27.867Z,9.00
2022-08-20T14:16:01.264Z,9.00
2022-08-20T14:18:34.062Z,8.20
2022-08-20T14:21:07.162Z,8.70
2022-08-20T14:23:40.054Z,8.90
2022-08-20T14:26:12.801Z,9.30
2022-08-20T14:28:45.751Z,8.80
2022-08-20T14:31:18.571Z,8.40
2022-08-20T14:33:51.961Z,9.70
2022-08-20T14:36:24.960Z,9.60
2022-08-20T14:38:57.770Z,10.30
2022-08-20T14:41:30.811Z,9.40
2022-08-20T14:44:05.412Z,8.80
2022-08-20T14:46:38.586Z,11.70
2022-08-20T14:49:11.420Z,9.90
2022-08-20T14:51:44.199Z,9.50
2022-08-20T14:54:17.095Z,8.20
2022-08-20T14:56:50.007Z,9.20
2022-08-20T14:59:22.895Z,9.10
2022-08-20T15:01:55.737Z,9.40
2022-08-20T15:04:30.213Z,8.90
2022-08-20T15:07:11.053Z,10.60
2022-08-20T15:09:46.077Z,10.20
2022-08-20T15:12:19.072Z,9.90
2022-08-20T15:14:52.318Z,21.80
2022-08-20T15:17:29.149Z,11.80
2022-08-20T15:20:09.680Z,12.40
2022-08-20T15:22:54.568Z,14.60
2022-08-20T15:25:36.175Z,14.00
2022-08-20T15:28:12.096Z,15.30
2022-08-20T15:30:45.359Z,14.60
2022-08-20T15:33:18.286Z,14.00
2022-08-20T15:35:51.468Z,12.30
2022-08-20T15:38:24.399Z,12.70
2022-08-20T15:40:57.246Z,13.70
2022-08-20T15:43:30.387Z,13.00
2022-08-20T15:46:06.591Z,15.90
2022-08-20T15:48:44.176Z,13.60
2022-08-20T15:51:30.760Z,12.30
2022-08-20T15:54:07.435Z,11.30
2022-08-20T15:56:58.520Z,11.60
2022-08-20T15:59:56.445Z,9.90
2022-08-20T16:03:02.614Z,9.30
2022-08-20T16:05:49.104Z,8.60
2022-08-20T16:08:44.224Z,8.00
2022-08-20T16:11:30.098Z,7.10
2022-08-20T16:14:16.635Z,7.00
2022-08-20T16:16:59.017Z,5.90
2022-08-20T16:19:52.505Z,5.60
2022-08-20T16:22:28.341Z,5.90
2022-08-20T16:25:02.996Z,6.00
2022-08-20T16:27:46.599Z,6.40
2022-08-20T16:30:28.334Z,5.60
2022-08-20T16:33:09.416Z,5.30
2022-08-20T16:35:51.212Z,5.60
2022-08-20T16:38:34.890Z,5.40
2022-08-20T16:41:17.014Z,5.80
2022-08-20T16:43:54.799Z,4.90
2022-08-20T16:46:37.437Z,4.80
2022-08-20T16:49:15.753Z,4.90
2022-08-20T16:51:52.599Z,4.50
2022-08-20T16:54:29.682Z,5.20
2022-08-20T16:57:07.725Z,5.30
2022-08-20T16:59:57.428Z,4.60
2022-08-20T17:02:30.445Z,4.10
2022-08-20T17:05:07.007Z,4.60
2022-08-20T17:07:54.337Z,4.00
2022-08-20T17:10:33.877Z,4.70
2022-08-20T17:13:28.017Z,4.70
2022-08-20T17:16:04.466Z,4.80
2022-08-20T17:18:41.239Z,5.00
2022-08-20T17:21:24.895Z,5.40
2022-08-20T17:24:01.593Z,5.60
2022-08-20T17:26:38.631Z,5.00
2022-08-20T17:29:22.676Z,6.10
2022-08-20T17:31:57.988Z,6.20
2022-08-20T17:34:43.647Z,6.10
2022-08-20T17:37:25.201Z,6.70
2022-08-20T17:40:16.791Z,6.00
2022-08-20T17:42:57.076Z,7.70
2022-08-20T17:48:09.765Z,7.40
2022-08-20T17:50:45.315Z,7.60
2022-08-20T17:53:25.509Z,8.20
2022-08-20T17:56:10.561Z,7.70
2022-08-20T17:58:54.853Z,7.40
2022-08-20T18:01:28.813Z,7.30
2022-08-20T18:04:01.896Z,7.80
2022-08-20T18:06:45.429Z,7.60
2022-08-20T18:09:27.679Z,6.70
2022-08-20T18:12:07.675Z,7.30
2022-08-20T18:15:10.153Z,4.90
2022-08-20T18:18:06.639Z,6.50
2022-08-20T18:20:58.872Z,6.30
2022-08-20T18:23:37.087Z,6.30
2022-08-20T18:26:15.113Z,5.90
2022-08-20T18:28:54.519Z,6.50
2022-08-20T18:31:32.942Z,6.40
2022-08-20T18:34:18.322Z,6.70
2022-08-20T18:37:01.642Z,7.60
2022-08-20T18:39:38.105Z,6.90
2022-08-20T18:42:26.699Z,6.80
2022-08-20T18:45:00.304Z,7.20
2022-08-20T18:47:46.533Z,7.00
2022-08-20T18:50:28.219Z,6.70
2022-08-20T18:53:19.809Z,7.60
2022-08-20T18:56:06.081Z,7.30
2022-08-20T18:58:55.625Z,7.50
2022-08-20T19:01:28.565Z,7.50
2022-08-20T19:04:02.346Z,7.90
2022-08-20T19:06:46.362Z,8.00
2022-08-20T19:09:34.287Z,8.50
2022-08-20T19:12:34.815Z,8.60
2022-08-20T19:15:15.401Z,8.20
2022-08-20T19:18:03.653Z,8.90
2022-08-20T19:20:40.725Z,8.30
2022-08-20T19:23:17.093Z,8.30
2022-08-20T19:25:58.209Z,10.00
2022-08-20T19:28:36.033Z,8.90
2022-08-20T19:31:20.733Z,9.00
2022-08-20T19:34:19.925Z,8.60
2022-08-20T19:37:09.134Z,9.90
2022-08-20T19:39:58.916Z,10.80
2022-08-20T19:42:41.977Z,9.50
2022-08-20T19:45:25.532Z,10.50
2022-08-20T19:48:12.433Z,9.40
2022-08-20T19:50:56.823Z,9.10
2022-08-20T19:53:32.941Z,8.60
2022-08-20T19:56:08.640Z,8.20
2022-08-20T19:58:41.595Z,9.10
2022-08-20T20:01:21.784Z,9.60
2022-08-20T20:04:03.932Z,9.10
2022-08-20T20:06:46.142Z,8.80
2022-08-20T20:09:25.105Z,9.70
2022-08-20T20:12:00.547Z,10.00
2022-08-20T20:14:37.086Z,10.30
2022-08-20T20:17:14.417Z,10.70
2022-08-20T20:19:57.181Z,9.80
2022-08-20T20:22:33.281Z,11.20
2022-08-20T20:25:22.613Z,11.90
2022-08-20T20:28:06.717Z,11.20
2022-08-20T20:30:40.931Z,10.80
2022-08-20T20:33:23.789Z,10.30
2022-08-20T20:36:08.453Z,12.50
2022-08-20T20:38:53.544Z,12.60
2022-08-20T20:41:31.085Z,13.80
2022-08-20T20:44:09.117Z,14.70
2022-08-20T20:46:42.565Z,16.30
2022-08-20T20:49:25.296Z,17.30
2022-08-20T20:52:04.027Z,18.10
2022-08-20T20:54:46.273Z,18.00
2022-08-20T20:57:32.682Z,19.60
2022-08-20T21:00:17.472Z,17.90
2022-08-20T21:02:50.868Z,17.50
2022-08-20T21:05:27.135Z,18.40
2022-08-20T21:08:03.753Z,18.70
2022-08-20T21:10:40.020Z,15.80
2022-08-20T21:13:16.452Z,17.10
2022-08-20T21:15:49.573Z,17.60
2022-08-20T21:18:25.802Z,17.70
2022-08-20T21:20:59.539Z,18.90
2022-08-20T21:23:40.251Z,18.50
2022-08-20T21:26:15.143Z,17.00
2022-08-20T21:28:48.136Z,16.50
2022-08-20T21:31:22.956Z,16.10
2022-08-20T21:33:55.638Z,16.20
2022-08-20T21:36:28.522Z,15.00
2022-08-20T21:39:01.319Z,15.00
2022-08-20T21:41:34.664Z,15.00
2022-08-20T21:44:15.209Z,14.50
2022-08-20T21:46:48.359Z,14.40
2022-08-20T21:49:22.576Z,13.00
2022-08-20T21:51:56.997Z,13.60
2022-08-20T21:54:30.504Z,12.40
2022-08-20T21:57:07.397Z,11.70
2022-08-20T21:59:42.674Z,11.10
2022-08-20T22:02:16.379Z,10.10
2022-08-20T22:04:49.465Z,10.50
2022-08-20T22:07:27.220Z,10.40
2022-08-20T22:10:00.291Z,10.30
2022-08-20T22:12:33.409Z,9.60
2022-08-20T22:15:07.497Z,8.80
2022-08-20T22:17:40.522Z,10.40
2022-08-20T22:20:14.847Z,10.70
2022-08-20T22:22:47.681Z,10.70
2022-08-20T22:25:20.613Z,10.20
2022-08-20T22:27:53.451Z,11.10
2022-08-20T22:30:26.857Z,9.80
2022-08-20T22:33:03.979Z,9.70
2022-08-20T22:35:38.075Z,10.60
2022-08-20T22:38:10.842Z,13.60
2022-08-20T22:40:43.911Z,9.10
2022-08-20T22:43:18.184Z,9.00
2022-08-20T22:45:55.060Z,8.80
2022-08-20T22:48:28.014Z,8.90
2022-08-20T22:51:02.379Z,9.20
2022-08-20T22:53:35.475Z,9.10
2022-08-20T22:56:09.620Z,9.20
2022-08-20T22:58:52.855Z,9.30
2022-08-20T23:01:26.018Z,9.90
2022-08-20T23:04:04.343Z,10.70
2022-08-20T23:06:37.224Z,10.70
2022-08-20T23:09:12.800Z,11.70
2022-08-20T23:11:46.167Z,10.80
2022-08-20T23:14:19.357Z,11.80
2022-08-20T23:16:59.213Z,12.00
2022-08-20T23:19:32.656Z,12.60
2022-08-20T23:22:06.161Z,11.20
2022-08-20T23:24:39.395Z,10.60
2022-08-20T23:27:16.500Z,10.20
2022-08-20T23:29:49.687Z,10.80
2022-08-20T23:32:22.454Z,11.50
2022-08-20T23:34:55.285Z,12.20
2022-08-20T23:37:28.150Z,12.00
2022-08-20T23:40:01.276Z,12.10
2022-08-20T23:42:34.537Z,11.90
2022-08-20T23:45:09.766Z,12.90
2022-08-20T23:47:43.259Z,12.00
2022-08-20T23:50:21.789Z,12.90
2022-08-20T23:52:58.439Z,13.10
2022-08-20T23:55:31.521Z,13.60
2022-08-20T23:58:04.708Z,13.50
